Time;durP1;ratioP1;P1;durP2;ratioP2;P2;SDS_P1;SDS_P2;PMS_P1;PMS_P2;Temp;Humidity;BMP_temperature;BMP_pressure;BME280_temperature;BME280_humidity;BME280_pressure;Samples;Min_cycle;Max_cycle;Signal;HPM_P1;HPM_P2
2022/09/03 00:00:08;;;;;;;0.73;0.73;;;;;;;14.50;69.50;99637.91;5074327;28;20072;-61
2022/09/03 00:02:44;;;;;;;1.00;0.85;;;;;;;14.63;69.46;99641.97;5073996;28;20532;-61
2022/09/03 00:05:22;;;;;;;0.50;0.50;;;;;;;14.66;69.04;99634.19;5074058;28;20094;-63
2022/09/03 00:07:58;;;;;;;1.02;0.90;;;;;;;14.59;69.75;99637.75;5073974;28;20135;-63
2022/09/03 00:10:36;;;;;;;0.52;0.52;;;;;;;14.65;69.92;99637.66;5074193;28;20463;-60
2022/09/03 00:13:09;;;;;;;0.95;0.73;;;;;;;14.70;69.15;99635.84;5074155;28;20211;-62
2022/09/03 00:15:40;;;;;;;1.02;0.98;;;;;;;14.87;69.00;99642.41;5074691;28;20106;-62
2022/09/03 00:18:16;;;;;;;0.82;0.82;;;;;;;14.92;68.35;99638.03;5074329;28;20478;-61
2022/09/03 00:20:51;;;;;;;0.60;0.60;;;;;;;14.95;67.86;99635.41;5073842;28;20036;-62
2022/09/03 00:23:23;;;;;;;0.52;0.52;;;;;;;14.93;68.18;99634.56;5074590;28;20052;-62
2022/09/03 00:26:00;;;;;;;1.23;1.13;;;;;;;14.93;68.35;99637.13;5073715;28;20516;-61
2022/09/03 00:28:34;;;;;;;1.10;1.00;;;;;;;14.92;68.16;99635.44;5073798;28;20044;-62
2022/09/03 00:31:13;;;;;;;0.60;0.60;;;;;;;14.96;68.13;99642.22;5073953;28;20098;-61
2022/09/03 00:33:46;;;;;;;0.57;0.57;;;;;;;14.99;67.90;99643.03;5074402;28;20049;-61
2022/09/03 00:36:20;;;;;;;0.45;0.45;;;;;;;14.93;67.79;99632.84;5073212;28;20052;-62
2022/09/03 00:38:49;;;;;;;2.08;1.25;;;;;;;14.93;68.04;99634.56;5073552;28;20044;-61
2022/09/03 00:41:32;;;;;;;0.50;0.50;;;;;;;14.96;67.47;99643.06;5073774;28;20094;-61
2022/09/03 00:44:15;;;;;;;3.70;1.25;;;;;;;14.97;67.44;99638.78;5074304;28;20557;-62
2022/09/03 00:46:51;;;;;;;0.70;0.70;;;;;;;14.94;67.44;99646.53;5073526;28;20055;-61
2022/09/03 00:49:35;;;;;;;3.35;1.55;;;;;;;14.84;67.83;99647.59;5073501;28;20045;-61
2022/09/03 00:52:13;;;;;;;1.15;0.98;;;;;;;14.73;68.20;99651.19;5073512;28;20063;-61
2022/09/03 00:54:53;;;;;;;1.27;0.90;;;;;;;14.68;68.55;99650.41;5073377;28;20040;-62
2022/09/03 00:57:34;;;;;;;0.60;0.60;;;;;;;14.56;68.59;99648.09;5073990;28;20402;-61
2022/09/03 01:00:07;;;;;;;0.50;0.50;;;;;;;14.45;68.96;99639.72;5073356;28;20047;-62
2022/09/03 01:02:52;;;;;;;0.52;0.52;;;;;;;14.57;69.29;99644.63;5073279;28;20044;-61
2022/09/03 01:05:34;;;;;;;0.80;0.80;;;;;;;14.61;68.78;99642.88;5073318;28;20497;-61
2022/09/03 01:08:21;;;;;;;0.60;0.60;;;;;;;14.64;68.78;99646.22;5073310;28;20051;-62
2022/09/03 01:10:57;;;;;;;1.75;1.48;;;;;;;14.70;68.68;99658.13;5073399;28;20098;-61
2022/09/03 01:13:37;;;;;;;0.68;0.68;;;;;;;14.67;68.34;99653.88;5073211;28;20083;-62
2022/09/03 01:16:19;;;;;;;0.47;0.47;;;;;;;14.63;67.81;99648.84;5073129;28;20131;-61
2022/09/03 01:19:00;;;;;;;0.82;0.60;;;;;;;14.58;67.94;99650.63;5073514;28;20091;-61
2022/09/03 01:21:57;;;;;;;2.80;1.95;;;;;;;14.54;68.15;99649.81;5073202;28;20044;-61
2022/09/03 01:24:52;;;;;;;0.50;0.50;;;;;;;14.49;67.97;99646.47;5073095;28;20041;-61
2022/09/03 01:27:36;;;;;;;1.20;0.98;;;;;;;14.44;67.91;99653.44;5073211;28;20573;-62
2022/09/03 01:30:15;;;;;;;0.55;0.55;;;;;;;14.46;68.27;99656.81;5073402;28;20137;-62
2022/09/03 01:32:52;;;;;;;0.40;0.40;;;;;;;14.42;68.38;99655.16;5072991;28;20059;-62
2022/09/03 01:35:29;;;;;;;0.47;0.47;;;;;;;14.41;68.10;99653.47;5073370;28;20136;-61
2022/09/03 01:38:13;;;;;;;1.23;0.90;;;;;;;14.37;68.60;99651.81;5073305;28;20454;-61
2022/09/03 01:40:55;;;;;;;1.15;1.05;;;;;;;14.31;68.62;99646.81;5072926;28;20044;-61
2022/09/03 01:43:39;;;;;;;1.05;0.60;;;;;;;14.31;68.57;99657.06;5073674;28;20425;-61
2022/09/03 01:46:21;;;;;;;2.33;0.95;;;;;;;14.29;68.47;99657.94;5073190;28;20075;-61
2022/09/03 01:48:58;;;;;;;0.90;0.88;;;;;;;14.31;68.46;99657.06;5076498;28;20131;-61
2022/09/03 01:51:30;;;;;;;0.50;0.50;;;;;;;14.29;68.94;99658.78;5076576;28;20128;-61
2022/09/03 01:54:20;;;;;;;0.63;0.63;;;;;;;14.30;69.08;99645.09;5076771;28;20063;-61
2022/09/03 01:57:21;;;;;;;2.50;1.08;;;;;;;14.19;69.08;99635.84;5076406;28;20045;-61
2022/09/03 02:00:09;;;;;;;0.55;0.55;;;;;;;14.26;69.01;99652.84;5076514;28;20132;-63
2022/09/03 02:02:46;;;;;;;0.57;0.57;;;;;;;14.19;69.61;99649.53;5076356;28;20044;-62
2022/09/03 02:05:22;;;;;;;1.00;0.90;;;;;;;14.10;69.75;99652.25;5076255;28;20131;-61
2022/09/03 02:07:59;;;;;;;0.55;0.55;;;;;;;14.08;69.97;99659.13;5076248;28;20494;-61
2022/09/03 02:10:32;;;;;;;0.85;0.80;;;;;;;14.07;69.88;99649.72;5076528;28;20502;-63
2022/09/03 02:13:06;;;;;;;0.50;0.50;;;;;;;14.11;69.73;99653.94;5076169;28;20512;-63
2022/09/03 02:15:38;;;;;;;1.00;0.98;;;;;;;14.06;69.93;99655.72;5076072;28;20041;-61
2022/09/03 02:18:14;;;;;;;0.77;0.77;;;;;;;14.04;69.94;99662.59;5076336;28;20508;-61
2022/09/03 02:20:43;;;;;;;0.82;0.82;;;;;;;14.03;69.64;99660.91;5075950;28;20131;-61
2022/09/03 02:23:12;;;;;;;0.40;0.40;;;;;;;14.03;69.62;99655.78;5075958;28;20044;-61
2022/09/03 02:25:44;;;;;;;;;;;;;;;14.05;69.66;99667.72;5076296;28;20048;-61
2022/09/03 02:28:16;;;;;;;0.60;0.60;;;;;;;14.01;69.59;99662.66;5075934;28;19971;-61
2022/09/03 02:30:46;;;;;;;0.52;0.52;;;;;;;13.94;69.79;99663.63;5075836;28;20097;-62
2022/09/03 02:33:17;;;;;;;0.77;0.75;;;;;;;13.88;69.73;99658.56;5076129;28;20057;-62
2022/09/03 02:35:47;;;;;;;1.00;0.80;;;;;;;13.85;69.96;99659.47;5075722;28;20044;-61
2022/09/03 02:38:19;;;;;;;0.57;0.57;;;;;;;13.83;70.08;99660.34;5075656;28;20102;-61
2022/09/03 02:40:48;;;;;;;0.60;0.60;;;;;;;13.84;70.19;99655.22;5075928;28;20045;-61
2022/09/03 02:43:22;;;;;;;1.13;1.02;;;;;;;13.87;69.97;99656.84;5075608;28;20059;-61
2022/09/03 02:45:58;;;;;;;0.50;0.50;;;;;;;13.87;70.12;99659.41;5076083;28;20056;-62
2022/09/03 02:48:28;;;;;;;0.68;0.68;;;;;;;13.86;70.26;99660.31;5075495;28;20052;-62
2022/09/03 02:50:57;;;;;;;0.40;0.40;;;;;;;13.89;70.18;99657.72;5074337;28;20060;-61
2022/09/03 02:53:28;;;;;;;0.85;0.85;;;;;;;13.89;70.03;99657.72;5075678;28;20494;-61
2022/09/03 02:56:00;;;;;;;0.65;0.65;;;;;;;13.84;70.26;99662.06;5074390;28;20143;-61
2022/09/03 02:58:31;;;;;;;0.43;0.43;;;;;;;13.81;70.09;99669.78;5074405;28;20072;-61
2022/09/03 03:00:59;;;;;;;0.63;0.63;;;;;;;13.81;70.31;99669.78;5075580;28;20048;-61
2022/09/03 03:03:30;;;;;;;3.08;1.25;;;;;;;13.70;70.06;99666.53;5075169;28;20102;-61
2022/09/03 03:06:03;;;;;;;0.50;0.50;;;;;;;13.60;70.31;99664.94;5075130;28;20049;-61
2022/09/03 03:08:33;;;;;;;0.98;0.85;;;;;;;13.61;70.41;99671.75;5076001;28;20116;-61
2022/09/03 03:11:03;;;;;;;0.40;0.40;;;;;;;13.65;70.60;99664.03;5075078;28;20053;-61
2022/09/03 03:13:33;;;;;;;1.25;1.15;;;;;;;13.65;70.35;99668.31;5075018;28;20070;-62
2022/09/03 03:16:02;;;;;;;;;;;;;;;13.68;70.35;99670.81;5075311;28;20053;-61
2022/09/03 03:18:32;;;;;;;0.60;0.60;;;;;;;13.69;70.30;99678.50;5074894;28;20118;-61
2022/09/03 03:21:05;;;;;;;0.40;0.40;;;;;;;13.68;70.62;99678.50;5074787;28;20040;-61
2022/09/03 03:23:35;;;;;;;1.25;1.15;;;;;;;13.61;70.47;99682.00;5075098;28;20045;-63
2022/09/03 03:26:04;;;;;;;;;;;;;;;13.62;70.72;99682.00;5075105;28;20072;-61
2022/09/03 03:28:33;;;;;;;0.77;0.77;;;;;;;13.62;70.92;99683.72;5074687;28;19963;-61
2022/09/03 03:31:07;;;;;;;0.93;0.93;;;;;;;13.56;70.89;99668.41;5074658;28;20047;-61
2022/09/03 03:33:38;;;;;;;0.75;0.75;;;;;;;13.64;70.40;99687.13;5074893;28;20045;-61
2022/09/03 03:36:10;;;;;;;0.60;0.60;;;;;;;13.60;70.58;99685.47;5074564;28;20048;-61
2022/09/03 03:38:39;;;;;;;0.60;0.60;;;;;;;13.57;70.79;99685.50;5074480;28;20090;-61
2022/09/03 03:41:10;;;;;;;1.17;1.08;;;;;;;13.59;70.57;99688.88;5074354;28;20483;-61
2022/09/03 03:43:39;;;;;;;0.70;0.70;;;;;;;13.55;70.70;99692.38;5074800;28;20454;-61
2022/09/03 03:46:09;;;;;;;0.50;0.50;;;;;;;13.50;70.80;99679.59;5074326;28;20082;-61
2022/09/03 03:48:40;;;;;;;0.52;0.52;;;;;;;13.54;70.82;99688.94;5074279;28;20127;-61
2022/09/03 03:51:10;;;;;;;0.70;0.70;;;;;;;13.57;70.72;99690.63;5074287;28;20040;-61
2022/09/03 03:53:39;;;;;;;0.52;0.52;;;;;;;13.54;70.62;99693.22;5074201;28;20544;-61
2022/09/03 03:56:11;;;;;;;1.20;0.82;;;;;;;13.47;70.49;99694.16;5074228;28;20048;-62
2022/09/03 03:58:42;;;;;;;0.40;0.40;;;;;;;13.40;70.83;99694.25;5074090;28;20124;-61
2022/09/03 04:01:14;;;;;;;6.00;0.90;;;;;;;13.42;70.99;99700.22;5074146;28;20482;-62
2022/09/03 04:03:44;;;;;;;0.82;0.82;;;;;;;13.41;70.93;99705.38;5074382;28;20486;-61
2022/09/03 04:06:16;;;;;;;0.80;0.80;;;;;;;13.35;70.77;99701.16;5073790;28;20514;-61
2022/09/03 04:08:47;;;;;;;1.73;1.10;;;;;;;13.33;70.97;99696.91;5074229;28;20083;-61
2022/09/03 04:11:19;;;;;;;0.40;0.40;;;;;;;13.35;71.01;99701.16;5074003;28;20045;-61
2022/09/03 04:13:49;;;;;;;0.68;0.68;;;;;;;13.38;70.85;99706.25;5074227;28;20051;-61
2022/09/03 04:16:20;;;;;;;0.50;0.50;;;;;;;13.39;70.83;99707.06;5073823;28;20037;-61
2022/09/03 04:18:52;;;;;;;0.77;0.77;;;;;;;13.35;70.89;99705.41;5074089;28;20491;-61
2022/09/03 04:21:22;;;;;;;0.63;0.63;;;;;;;13.34;71.13;99709.69;5073709;28;20036;-61
2022/09/03 04:23:53;;;;;;;1.02;1.00;;;;;;;13.32;70.95;99715.69;5073691;28;20052;-61
2022/09/03 04:26:24;;;;;;;0.63;0.63;;;;;;;13.28;71.31;99714.91;5074019;28;20045;-62
2022/09/03 04:28:54;;;;;;;0.60;0.60;;;;;;;13.32;71.48;99714.00;5074071;28;20131;-61
2022/09/03 04:31:23;;;;;;;1.20;0.90;;;;;;;13.33;71.45;99712.28;5073710;28;20041;-61
2022/09/03 04:33:53;;;;;;;0.50;0.50;;;;;;;13.31;71.28;99712.31;5073636;28;20067;-61
2022/09/03 04:36:25;;;;;;;1.33;1.23;;;;;;;13.34;71.31;99719.13;5073973;28;20048;-61
2022/09/03 04:38:55;;;;;;;1.15;1.05;;;;;;;13.33;71.19;99717.41;5073551;28;20513;-61
2022/09/03 04:41:26;;;;;;;0.90;0.90;;;;;;;13.38;71.41;99716.50;5073536;28;20032;-61
2022/09/03 04:43:56;;;;;;;2.25;2.05;;;;;;;13.40;71.42;99722.47;5073557;28;20056;-61
2022/09/03 04:46:32;;;;;;;0.60;0.60;;;;;;;13.42;71.56;99714.72;5073859;28;20049;-61
2022/09/03 04:49:03;;;;;;;0.65;0.65;;;;;;;13.44;71.45;99711.28;5073787;28;20075;-61
2022/09/03 04:51:32;;;;;;;0.65;0.65;;;;;;;13.48;71.55;99716.38;5074340;28;20083;-61
2022/09/03 04:54:02;;;;;;;2.53;1.02;;;;;;;13.48;71.62;99717.25;5073473;28;20502;-61
2022/09/03 04:56:31;;;;;;;;;;;;;;;13.43;71.54;99724.13;5074161;28;20067;-61
2022/09/03 04:59:02;;;;;;;1.65;1.33;;;;;;;13.40;71.58;99713.91;5073716;28;19959;-61
2022/09/03 05:01:33;;;;;;;0.47;0.47;;;;;;;13.50;71.65;99719.78;5073542;28;20393;-61
2022/09/03 05:04:04;;;;;;;0.70;0.70;;;;;;;13.58;71.39;99715.41;5073399;28;20044;-61
2022/09/03 05:06:35;;;;;;;0.85;0.60;;;;;;;13.62;71.41;99714.50;5073047;28;20098;-61
2022/09/03 05:09:05;;;;;;;0.70;0.70;;;;;;;13.66;71.22;99716.16;5073615;28;20048;-61
2022/09/03 05:11:34;;;;;;;0.40;0.40;;;;;;;13.73;71.08;99718.63;5073178;28;20044;-61
2022/09/03 05:14:04;;;;;;;1.13;1.00;;;;;;;13.83;71.31;99714.22;5073448;28;20033;-61
2022/09/03 05:16:33;;;;;;;;;;;;;;;13.88;70.96;99713.31;5073992;28;20048;-62
2022/09/03 05:19:04;;;;;;;0.60;0.60;;;;;;;14.00;70.89;99712.28;5073187;28;19920;-61
2022/09/03 05:21:35;;;;;;;0.43;0.43;;;;;;;14.11;70.72;99715.53;5073087;28;20055;-61
2022/09/03 05:24:05;;;;;;;0.38;0.38;;;;;;;14.18;70.72;99722.25;5077392;28;20075;-61
2022/09/03 05:26:38;;;;;;;0.45;0.45;;;;;;;14.26;70.22;99725.59;5077049;28;20044;-61
2022/09/03 05:29:07;;;;;;;0.68;0.68;;;;;;;14.33;70.50;99727.22;5077052;28;20072;-61
2022/09/03 05:31:38;;;;;;;0.80;0.80;;;;;;;14.47;70.37;99727.84;5077185;28;20090;-61
2022/09/03 05:34:09;;;;;;;1.85;0.60;;;;;;;14.60;69.73;99729.38;5076851;28;20102;-61
2022/09/03 05:36:48;;;;;;;0.82;0.82;;;;;;;14.70;69.61;99723.22;5077442;28;20048;-61
2022/09/03 05:39:17;;;;;;;1.05;0.93;;;;;;;14.84;69.24;99728.09;5076813;28;20052;-63
2022/09/03 05:41:47;;;;;;;0.73;0.73;;;;;;;14.96;69.17;99724.47;5076624;28;20131;-61
2022/09/03 05:44:15;;;;;;;;;;;;;;;15.09;69.29;99731.91;5077575;28;20398;-61
2022/09/03 05:46:44;;;;;;;0.60;0.60;;;;;;;15.21;69.29;99741.16;5076634;28;19960;-62
2022/09/03 05:49:15;;;;;;;0.40;0.40;;;;;;;15.30;68.83;99740.97;5076610;28;20032;-63
2022/09/03 05:51:45;;;;;;;0.60;0.60;;;;;;;15.37;68.68;99740.84;5076846;28;20117;-61
2022/09/03 05:54:13;;;;;;;0.90;0.65;;;;;;;15.51;68.46;99745.72;5076807;28;20558;-62
2022/09/03 05:56:42;;;;;;;0.70;0.70;;;;;;;15.64;68.02;99733.47;5076381;28;20072;-62
2022/09/03 05:59:12;;;;;;;0.88;0.88;;;;;;;15.73;67.38;99726.41;5076763;28;20075;-61
2022/09/03 06:01:44;;;;;;;0.60;0.60;;;;;;;15.88;66.78;99736.38;5076555;28;20488;-61
2022/09/03 06:04:20;;;;;;;1.58;1.17;;;;;;;15.99;66.78;99729.28;5076341;28;20486;-62
2022/09/03 06:06:49;;;;;;;0.68;0.63;;;;;;;16.13;66.10;99741.00;5074749;28;20040;-61
2022/09/03 06:09:20;;;;;;;0.70;0.60;;;;;;;16.26;65.41;99729.53;5076399;28;20434;-62
2022/09/03 06:11:53;;;;;;;0.65;0.60;;;;;;;16.36;65.20;99719.00;5076222;28;20048;-62
2022/09/03 06:14:24;;;;;;;1.13;1.02;;;;;;;16.55;65.08;99722.00;5076054;28;20044;-61
2022/09/03 06:16:54;;;;;;;1.08;0.82;;;;;;;16.56;64.54;99727.13;5076057;28;20094;-61
2022/09/03 06:19:24;;;;;;;1.10;1.00;;;;;;;16.62;64.21;99732.16;5075932;28;20040;-61
2022/09/03 06:21:54;;;;;;;0.55;0.55;;;;;;;16.74;64.01;99725.84;5075990;28;20487;-61
2022/09/03 06:24:23;;;;;;;1.10;1.00;;;;;;;16.84;64.20;99727.31;5075921;28;20048;-62
2022/09/03 06:26:56;;;;;;;0.55;0.55;;;;;;;16.94;63.52;99721.00;5076211;28;20452;-61
2022/09/03 06:29:25;;;;;;;1.10;1.00;;;;;;;17.03;63.26;99728.53;5076281;28;20119;-62
2022/09/03 06:31:54;;;;;;;0.67;0.67;;;;;;;17.14;63.23;99721.34;5075828;28;20041;-61
2022/09/03 06:34:27;;;;;;;0.50;0.50;;;;;;;17.22;63.10;99724.56;5076008;28;20044;-61
2022/09/03 06:36:57;;;;;;;0.98;0.82;;;;;;;17.34;63.01;99723.38;5075983;28;20045;-62
2022/09/03 06:39:25;;;;;;;0.68;0.68;;;;;;;17.40;62.94;99724.06;5075874;28;20048;-62
2022/09/03 06:41:54;;;;;;;0.50;0.50;;;;;;;17.44;62.35;99730.81;5075807;28;20045;-62
2022/09/03 06:44:34;;;;;;;3.90;1.65;;;;;;;17.54;62.21;99720.28;5075911;28;20585;-61
2022/09/03 06:47:02;;;;;;;0.60;0.60;;;;;;;17.58;61.82;99716.72;5075577;28;20102;-62
2022/09/03 06:49:32;;;;;;;0.60;0.60;;;;;;;17.64;61.64;99724.28;5075445;28;20064;-61
2022/09/03 06:52:02;;;;;;;1.13;1.05;;;;;;;17.75;61.89;99730.00;5075444;28;20513;-61
2022/09/03 06:54:30;;;;;;;2.38;1.55;;;;;;;17.89;61.44;99727.84;5075362;28;20474;-62
2022/09/03 06:56:59;;;;;;;1.10;1.00;;;;;;;18.02;61.15;99722.25;5075208;28;20048;-62
2022/09/03 06:59:28;;;;;;;0.57;0.57;;;;;;;18.18;60.87;99724.38;5075291;28;20048;-62
2022/09/03 07:01:59;;;;;;;0.40;0.40;;;;;;;18.30;60.58;99718.84;5075020;28;20787;-62
2022/09/03 07:04:28;;;;;;;0.73;0.73;;;;;;;18.48;60.50;99715.69;5075245;28;20056;-62
2022/09/03 07:06:58;;;;;;;1.60;0.80;;;;;;;18.58;59.94;99714.50;5074982;28;20090;-62
2022/09/03 07:09:27;;;;;;;0.63;0.57;;;;;;;18.60;59.56;99713.56;5075211;28;20045;-62
2022/09/03 07:11:55;;;;;;;0.50;0.50;;;;;;;18.74;59.90;99716.53;5075222;28;20114;-62
2022/09/03 07:14:24;;;;;;;2.10;0.70;;;;;;;18.75;60.29;99712.22;5075220;28;20437;-62
2022/09/03 07:16:54;;;;;;;0.88;0.88;;;;;;;18.90;59.75;99714.28;5075224;28;20044;-62
2022/09/03 07:19:23;;;;;;;2.35;1.23;;;;;;;19.08;59.25;99718.81;5074895;28;20071;-62
2022/09/03 07:21:51;;;;;;;1.00;0.95;;;;;;;19.16;58.62;99718.56;5075054;28;20440;-62
2022/09/03 07:24:21;;;;;;;0.77;0.77;;;;;;;19.25;58.35;99718.22;5075052;28;20460;-62
2022/09/03 07:26:52;;;;;;;2.70;1.48;;;;;;;19.35;57.98;99714.41;5075086;28;20048;-62
2022/09/03 07:29:21;;;;;;;0.60;0.60;;;;;;;19.43;58.29;99712.44;5074648;28;20048;-62
2022/09/03 07:31:51;;;;;;;0.80;0.80;;;;;;;19.55;57.55;99711.16;5074604;28;20040;-62
2022/09/03 07:34:25;;;;;;;1.13;0.90;;;;;;;19.62;57.08;99712.59;5074573;28;20049;-62
2022/09/03 07:36:54;;;;;;;0.82;0.77;;;;;;;19.73;57.18;99710.44;5074824;28;20044;-62
2022/09/03 07:39:24;;;;;;;1.08;1.05;;;;;;;19.87;57.08;99708.19;5074682;28;20407;-62
2022/09/03 07:41:53;;;;;;;1.02;0.93;;;;;;;19.93;56.45;99706.22;5074639;28;20398;-62
2022/09/03 07:44:23;;;;;;;0.70;0.70;;;;;;;19.92;56.64;99701.94;5074390;28;20114;-62
2022/09/03 07:46:51;;;;;;;;;;;;;;;19.80;56.63;99709.31;5074618;28;20478;-62
2022/09/03 07:49:21;;;;;;;0.70;0.70;;;;;;;19.86;56.78;99696.16;5074476;28;19974;-62
2022/09/03 07:51:52;;;;;;;0.70;0.70;;;;;;;19.96;56.31;99698.31;5074594;28;20048;-62
2022/09/03 07:54:22;;;;;;;0.88;0.88;;;;;;;20.07;56.22;99700.50;5074265;28;20487;-62
2022/09/03 07:56:52;;;;;;;;;;;;;;;20.06;56.35;99704.84;5074815;28;20407;-62
2022/09/03 07:59:22;;;;;;;0.77;0.70;;;;;;;20.03;55.96;99699.75;5074376;28;20429;-62
2022/09/03 08:01:51;;;;;;;1.10;1.08;;;;;;;20.15;55.46;99705.41;5073873;28;20044;-62
2022/09/03 08:04:21;;;;;;;0.93;0.93;;;;;;;20.27;55.07;99710.13;5074004;28;20071;-62
2022/09/03 08:06:54;;;;;;;0.70;0.70;;;;;;;20.36;54.73;99708.00;5073842;28;20506;-62
2022/09/03 08:09:23;;;;;;;1.58;1.33;;;;;;;20.50;54.54;99699.66;5073968;28;20048;-62
2022/09/03 08:11:53;;;;;;;0.90;0.90;;;;;;;20.57;53.83;99708.88;5073792;28;20555;-62
2022/09/03 08:14:22;;;;;;;0.60;0.60;;;;;;;20.65;54.34;99704.22;5073891;28;20127;-63
2022/09/03 08:16:51;;;;;;;0.63;0.60;;;;;;;20.69;54.07;99710.97;5074078;28;20048;-62
2022/09/03 08:19:22;;;;;;;1.53;1.03;;;;;;;20.62;53.86;99712.13;5073813;28;20036;-62
2022/09/03 08:21:50;;;;;;;0.68;0.68;;;;;;;20.73;53.52;99715.16;5074300;28;20367;-62
2022/09/03 08:24:23;;;;;;;4.17;1.10;;;;;;;20.88;53.57;99717.09;5073489;28;20097;-62
2022/09/03 08:26:53;;;;;;;1.55;1.35;;;;;;;20.97;54.17;99714.09;5073682;28;20052;-62
2022/09/03 08:29:22;;;;;;;0.65;0.65;;;;;;;21.11;54.36;99719.59;5074038;28;20064;-61
2022/09/03 08:31:51;;;;;;;0.60;0.60;;;;;;;21.15;53.43;99713.34;5073615;28;20106;-61
2022/09/03 08:34:20;;;;;;;0.60;0.60;;;;;;;21.15;52.99;99705.56;5073636;28;20040;-62
2022/09/03 08:36:49;;;;;;;0.70;0.70;;;;;;;21.22;52.90;99714.78;5073527;28;20123;-62
2022/09/03 08:39:18;;;;;;;1.10;0.95;;;;;;;21.38;52.45;99713.19;5073799;28;20517;-61
2022/09/03 08:42:11;;;;;;;0.63;0.63;;;;;;;21.41;51.79;99700.97;5073822;28;20512;-62
2022/09/03 08:44:45;;;;;;;1.13;1.02;;;;;;;21.52;51.63;99693.56;5073465;28;20056;-62
2022/09/03 08:47:19;;;;;;;0.63;0.63;;;;;;;21.73;51.35;99697.78;5073825;28;20045;-62
2022/09/03 08:49:54;;;;;;;0.85;0.85;;;;;;;21.86;50.92;99693.72;5073396;28;20127;-62
2022/09/03 08:52:31;;;;;;;0.60;0.60;;;;;;;21.97;51.15;99684.53;5073504;28;20098;-62
2022/09/03 08:55:17;;;;;;;0.50;0.50;;;;;;;22.08;52.06;99689.19;5073610;28;20044;-61
2022/09/03 08:57:49;;;;;;;0.85;0.85;;;;;;;22.19;51.78;99699.94;5075453;28;20044;-61
2022/09/03 09:00:19;;;;;;;0.50;0.50;;;;;;;22.28;50.89;99691.69;5077859;28;20055;-61
2022/09/03 09:03:07;;;;;;;0.50;0.50;;;;;;;22.33;51.58;99694.94;5077383;28;20045;-61
2022/09/03 09:05:47;;;;;;;0.43;0.43;;;;;;;22.38;51.80;99698.16;5077742;28;20058;-61
2022/09/03 09:08:25;;;;;;;0.52;0.52;;;;;;;22.48;50.76;99699.38;5077216;28;20590;-61
2022/09/03 09:11:02;;;;;;;1.13;0.80;;;;;;;22.61;50.96;99689.22;5077350;28;20562;-61
2022/09/03 09:13:42;;;;;;;1.20;1.08;;;;;;;22.63;48.87;99696.03;5077348;28;20059;-63
2022/09/03 09:16:20;;;;;;;1.23;1.13;;;;;;;22.57;47.86;99688.53;5077208;28;20044;-63
2022/09/03 09:19:03;;;;;;;0.40;0.40;;;;;;;22.60;47.66;99688.34;5077348;28;20110;-63
2022/09/03 09:21:40;;;;;;;0.63;0.63;;;;;;;22.76;47.77;99690.22;5076207;28;20487;-62
2022/09/03 09:24:23;;;;;;;0.82;0.80;;;;;;;22.71;46.80;99689.63;5076976;28;20044;-62
2022/09/03 09:26:58;;;;;;;0.65;0.65;;;;;;;22.82;46.43;99697.75;5077095;28;20565;-62
2022/09/03 09:29:33;;;;;;;0.70;0.70;;;;;;;22.98;46.12;99694.28;5076971;28;20059;-62
2022/09/03 09:32:03;;;;;;;0.60;0.60;;;;;;;22.90;45.85;99685.16;5077211;28;20394;-62
2022/09/03 09:34:35;;;;;;;0.65;0.65;;;;;;;23.04;46.16;99685.28;5076944;28;20132;-62
2022/09/03 09:37:08;;;;;;;0.60;0.60;;;;;;;22.88;45.51;99676.59;5077089;28;20371;-62
2022/09/03 09:39:37;;;;;;;0.68;0.68;;;;;;;23.04;46.61;99680.09;5076851;28;20090;-62
2022/09/03 09:42:09;;;;;;;1.10;0.90;;;;;;;23.25;46.30;99679.00;5076913;28;20036;-62
2022/09/03 09:44:42;;;;;;;0.82;0.70;;;;;;;23.40;44.72;99680.81;5076670;28;20053;-62
2022/09/03 09:47:15;;;;;;;0.50;0.50;;;;;;;23.44;43.85;99679.75;5076595;28;20045;-62
2022/09/03 09:49:52;;;;;;;0.60;0.60;;;;;;;23.48;43.50;99683.00;5076581;28;20558;-62
2022/09/03 09:52:24;;;;;;;0.43;0.43;;;;;;;23.57;43.16;99680.75;5076670;28;20065;-62
2022/09/03 09:55:06;;;;;;;0.70;0.70;;;;;;;23.69;43.14;99672.28;5076508;28;20079;-62
2022/09/03 09:57:36;;;;;;;1.60;1.20;;;;;;;23.27;42.94;99669.34;5076838;28;20060;-62
2022/09/03 10:00:09;;;;;;;0.52;0.52;;;;;;;23.41;44.13;99666.88;5076528;28;20474;-62
2022/09/03 10:02:41;;;;;;;0.63;0.63;;;;;;;23.62;44.76;99665.72;5076434;28;20064;-63
2022/09/03 10:05:15;;;;;;;1.85;1.25;;;;;;;23.79;44.72;99670.84;5076592;28;20044;-62
2022/09/03 10:07:55;;;;;;;0.50;0.50;;;;;;;23.73;44.22;99662.53;5075598;28;20056;-63
2022/09/03 10:10:26;;;;;;;0.60;0.60;;;;;;;23.81;43.96;99669.00;5076247;28;20044;-62
2022/09/03 10:13:01;;;;;;;0.75;0.75;;;;;;;23.94;43.83;99667.41;5076512;28;20135;-62
2022/09/03 10:15:42;;;;;;;0.40;0.40;;;;;;;24.01;42.56;99667.91;5076166;28;20063;-62
2022/09/03 10:18:24;;;;;;;0.47;0.47;;;;;;;24.00;42.06;99666.22;5076253;28;20052;-62
2022/09/03 10:21:05;;;;;;;0.57;0.57;;;;;;;24.06;41.43;99665.03;5075986;28;20492;-62
2022/09/03 10:23:49;;;;;;;0.50;0.50;;;;;;;24.06;41.47;99659.81;5076597;28;20128;-62
2022/09/03 10:26:28;;;;;;;1.38;0.60;;;;;;;23.97;41.10;99651.56;5076197;28;20052;-62
2022/09/03 10:29:02;;;;;;;0.50;0.50;;;;;;;24.16;40.94;99653.19;5075888;28;20135;-62
2022/09/03 10:31:55;;;;;;;0.80;0.57;;;;;;;24.24;41.67;99658.81;5075859;28;20127;-62
2022/09/03 10:34:36;;;;;;;0.50;0.50;;;;;;;24.39;41.44;99647.50;5075786;28;20051;-62
2022/09/03 10:37:18;;;;;;;0.70;0.70;;;;;;;24.56;41.82;99657.81;5076159;28;20078;-62
2022/09/03 10:40:04;;;;;;;0.65;0.65;;;;;;;24.91;42.50;99653.97;5076072;28;20041;-62
2022/09/03 10:42:44;;;;;;;0.73;0.73;;;;;;;25.05;41.67;99651.38;5076009;28;20077;-62
2022/09/03 10:45:20;;;;;;;0.63;0.63;;;;;;;25.03;40.93;99655.84;5075605;28;20072;-63
2022/09/03 10:48:16;;;;;;;0.50;0.50;;;;;;;25.01;40.29;99656.88;5075522;28;20044;-62
2022/09/03 10:50:52;;;;;;;0.70;0.70;;;;;;;24.85;39.92;99659.59;5075492;28;20040;-62
2022/09/03 10:53:34;;;;;;;0.50;0.50;;;;;;;24.83;39.72;99653.63;5075767;28;20083;-62
2022/09/03 10:56:09;;;;;;;0.50;0.50;;;;;;;24.90;39.80;99660.16;5075848;28;20490;-62
2022/09/03 10:58:57;;;;;;;0.52;0.52;;;;;;;25.12;40.00;99647.44;5075391;28;20516;-62
2022/09/03 11:01:35;;;;;;;0.60;0.60;;;;;;;25.14;39.79;99648.22;5075611;28;20048;-62
2022/09/03 11:04:21;;;;;;;0.60;0.60;;;;;;;25.26;39.61;99636.19;5075109;28;20068;-62
2022/09/03 11:06:54;;;;;;;1.42;1.02;;;;;;;25.40;40.14;99643.16;5075094;28;20135;-62
2022/09/03 11:09:28;;;;;;;0.47;0.47;;;;;;;25.52;39.61;99642.44;5075350;28;20076;-62
2022/09/03 11:12:01;;;;;;;0.57;0.57;;;;;;;25.72;40.63;99634.19;5075132;28;20044;-62
2022/09/03 11:14:36;;;;;;;0.50;0.50;;;;;;;25.64;39.03;99639.06;5074994;28;20048;-62
2022/09/03 11:17:12;;;;;;;0.52;0.52;;;;;;;25.63;38.46;99624.28;5074946;28;20498;-62
2022/09/03 11:19:49;;;;;;;0.50;0.50;;;;;;;25.59;38.19;99622.81;5074043;28;20143;-62
2022/09/03 11:22:22;;;;;;;0.60;0.60;;;;;;;25.65;37.91;99622.44;5074881;28;20076;-62
2022/09/03 11:24:56;;;;;;;0.47;0.47;;;;;;;25.80;37.93;99621.44;5074926;28;20040;-62
2022/09/03 11:27:37;;;;;;;0.50;0.50;;;;;;;25.92;38.56;99626.72;5075033;28;20048;-62
2022/09/03 11:30:08;;;;;;;1.10;0.88;;;;;;;25.77;36.96;99632.94;5074969;28;20147;-62
2022/09/03 11:32:49;;;;;;;1.55;0.90;;;;;;;25.74;36.09;99627.06;5075038;28;20068;-63
2022/09/03 11:35:30;;;;;;;0.60;0.60;;;;;;;25.80;36.27;99626.66;5073548;28;20060;-62
2022/09/03 11:38:02;;;;;;;0.50;0.50;;;;;;;25.77;36.51;99624.28;5075176;28;20479;-63
2022/09/03 11:40:34;;;;;;;0.32;0.32;;;;;;;25.75;36.56;99633.97;5074423;28;20517;-62
2022/09/03 11:43:24;;;;;;;0.60;0.60;;;;;;;25.92;37.48;99631.97;5074430;28;20044;-62
2022/09/03 11:46:04;;;;;;;1.05;1.00;;;;;;;25.95;37.35;99629.16;5074595;28;20565;-62
2022/09/03 11:48:37;;;;;;;0.70;0.70;;;;;;;26.26;37.91;99625.41;5074618;28;20048;-62
2022/09/03 11:51:20;;;;;;;0.75;0.60;;;;;;;26.40;37.59;99638.44;5074589;28;20048;-62
2022/09/03 11:53:57;;;;;;;0.60;0.60;;;;;;;26.28;37.33;99633.16;5074293;28;20059;-61
2022/09/03 11:56:26;;;;;;;0.52;0.52;;;;;;;26.17;36.79;99636.50;5072976;28;20036;-62
2022/09/03 11:59:17;;;;;;;0.60;0.60;;;;;;;26.25;36.22;99628.13;5074228;28;20083;-63
2022/09/03 12:01:52;;;;;;;0.40;0.40;;;;;;;26.31;36.57;99633.81;5074072;28;20041;-63
2022/09/03 12:04:26;;;;;;;0.45;0.45;;;;;;;26.40;36.50;99633.19;5074197;28;20041;-63